sensor_id;sensor_type;location;lat;lon;timestamp;pressure;altitude;pressure_sealevel;temperature;humidity
29505;BME280;16452;54.174;12.092;2023-02-13T00:02:00;103535.25;;;9.67;99.85
29505;BME280;16452;54.174;12.092;2023-02-13T00:04:25;103537.06;;;9.47;100.00
29505;BME280;16452;54.174;12.092;2023-02-13T00:06:51;103527.44;;;9.69;100.00
29505;BME280;16452;54.174;12.092;2023-02-13T00:09:17;103531.81;;;9.62;100.00
29505;BME280;16452;54.174;12.092;2023-02-13T00:11:43;103525.81;;;9.39;100.00
29505;BME280;16452;54.174;12.092;2023-02-13T00:14:08;103531.88;;;9.33;100.00
29505;BME280;16452;54.174;12.092;2023-02-13T00:16:34;103525.78;;;9.53;100.00
29505;BME280;16452;54.174;12.092;2023-02-13T00:19:00;103531.81;;;9.59;99.42
29505;BME280;16452;54.174;12.092;2023-02-13T00:21:26;103533.56;;;9.56;97.27
29505;BME280;16452;54.174;12.092;2023-02-13T00:23:52;103533.59;;;9.43;96.83
29505;BME280;16452;54.174;12.092;2023-02-13T00:26:17;103530.91;;;9.69;95.48
29505;BME280;16452;54.174;12.092;2023-02-13T00:28:44;103529.19;;;9.71;94.53
29505;BME280;16452;54.174;12.092;2023-02-13T00:31:14;103527.50;;;9.51;93.66
29505;BME280;16452;54.174;12.092;2023-02-13T00:33:40;103529.16;;;9.73;92.14
29505;BME280;16452;54.174;12.092;2023-02-13T00:36:10;103529.16;;;9.74;90.95
29505;BME280;16452;54.174;12.092;2023-02-13T00:38:37;103535.34;;;9.46;91.95
29505;BME280;16452;54.174;12.092;2023-02-13T00:41:04;103522.31;;;9.46;91.34
29505;BME280;16452;54.174;12.092;2023-02-13T00:43:31;103523.09;;;9.68;91.78
29505;BME280;16452;54.174;12.092;2023-02-13T00:45:57;103520.50;;;9.68;92.86
29505;BME280;16452;54.174;12.092;2023-02-13T00:48:27;103526.63;;;9.61;93.49
29505;BME280;16452;54.174;12.092;2023-02-13T00:50:53;103524.03;;;9.53;94.81
29505;BME280;16452;54.174;12.092;2023-02-13T00:53:21;103522.25;;;9.63;94.66
29505;BME280;16452;54.174;12.092;2023-02-13T00:55:48;103526.66;;;9.39;95.35
29505;BME280;16452;54.174;12.092;2023-02-13T00:58:15;103534.47;;;9.45;93.73
29505;BME280;16452;54.174;12.092;2023-02-13T01:00:41;103521.44;;;9.50;92.89
29505;BME280;16452;54.174;12.092;2023-02-13T01:03:08;103522.28;;;9.58;92.43
29505;BME280;16452;54.174;12.092;2023-02-13T01:05:37;103523.09;;;9.71;91.42
29505;BME280;16452;54.174;12.092;2023-02-13T01:08:03;103524.00;;;9.56;90.87
29505;BME280;16452;54.174;12.092;2023-02-13T01:10:28;103524.91;;;9.54;90.41
29505;BME280;16452;54.174;12.092;2023-02-13T01:12:54;103531.00;;;9.43;91.16
29505;BME280;16452;54.174;12.092;2023-02-13T01:15:20;103525.78;;;9.45;91.92
29505;BME280;16452;54.174;12.092;2023-02-13T01:17:46;103528.38;;;9.49;91.58
29505;BME280;16452;54.174;12.092;2023-02-13T01:20:13;103533.59;;;9.45;91.38
29505;BME280;16452;54.174;12.092;2023-02-13T01:22:39;103535.34;;;9.34;92.83
29505;BME280;16452;54.174;12.092;2023-02-13T01:25:06;103537.09;;;9.35;92.04
29505;BME280;16452;54.174;12.092;2023-02-13T01:27:32;103532.78;;;9.37;92.00
29505;BME280;16452;54.174;12.092;2023-02-13T01:29:58;103532.72;;;9.51;91.19
29505;BME280;16452;54.174;12.092;2023-02-13T01:32:25;103529.25;;;9.52;89.75
29505;BME280;16452;54.174;12.092;2023-02-13T01:34:50;103532.78;;;9.25;89.85
29505;BME280;16452;54.174;12.092;2023-02-13T01:37:16;103537.06;;;9.44;90.01
29505;BME280;16452;54.174;12.092;2023-02-13T01:39:42;103528.47;;;9.25;90.96
29505;BME280;16452;54.174;12.092;2023-02-13T01:42:20;103524.91;;;9.52;90.52
29505;BME280;16452;54.174;12.092;2023-02-13T01:44:53;103524.97;;;9.29;90.63
29505;BME280;16452;54.174;12.092;2023-02-13T01:47:41;103518.00;;;9.48;89.59
29505;BME280;16452;54.174;12.092;2023-02-13T01:50:53;103518.03;;;9.36;89.16
29505;BME280;16452;54.174;12.092;2023-02-13T01:53:47;103515.38;;;9.43;89.80
29505;BME280;16452;54.174;12.092;2023-02-13T01:56:26;103516.31;;;9.24;90.99
29505;BME280;16452;54.174;12.092;2023-02-13T01:59:00;103503.25;;;9.44;89.62
29505;BME280;16452;54.174;12.092;2023-02-13T02:01:27;103502.41;;;9.40;88.54
29505;BME280;16452;54.174;12.092;2023-02-13T02:04:06;103501.59;;;9.25;88.95
29505;BME280;16452;54.174;12.092;2023-02-13T02:06:41;103507.56;;;9.53;88.18
29505;BME280;16452;54.174;12.092;2023-02-13T02:09:17;103503.22;;;9.50;88.41
29505;BME280;16452;54.174;12.092;2023-02-13T02:12:38;103498.03;;;9.53;87.41
29505;BME280;16452;54.174;12.092;2023-02-13T02:15:07;103504.97;;;9.53;87.73
29505;BME280;16452;54.174;12.092;2023-02-13T02:17:33;103510.22;;;9.30;87.81
29505;BME280;16452;54.174;12.092;2023-02-13T02:23:55;103506.72;;;9.38;87.53
29505;BME280;16452;54.174;12.092;2023-02-13T02:27:08;103497.16;;;9.51;87.06
29505;BME280;16452;54.174;12.092;2023-02-13T02:30:08;103501.50;;;9.46;87.12
29505;BME280;16452;54.174;12.092;2023-02-13T02:32:56;103492.88;;;9.36;87.39
29505;BME280;16452;54.174;12.092;2023-02-13T02:35:45;103499.72;;;9.56;86.78
29505;BME280;16452;54.174;12.092;2023-02-13T02:38:44;103498.94;;;9.37;87.33
29505;BME280;16452;54.174;12.092;2023-02-13T02:45:01;103491.06;;;9.51;87.99
29505;BME280;16452;54.174;12.092;2023-02-13T02:47:47;103490.25;;;9.41;87.52
29505;BME280;16452;54.174;12.092;2023-02-13T02:54:25;103483.31;;;9.43;87.57
29505;BME280;16452;54.174;12.092;2023-02-13T02:57:17;103486.84;;;9.25;86.82
29505;BME280;16452;54.174;12.092;2023-02-13T02:59:48;103479.88;;;9.35;86.92
29505;BME280;16452;54.174;12.092;2023-02-13T03:02:33;103476.34;;;9.51;85.92
29505;BME280;16452;54.174;12.092;2023-02-13T03:05:28;103485.91;;;9.47;85.35
29505;BME280;16452;54.174;12.092;2023-02-13T03:08:14;103485.94;;;9.28;85.58
29505;BME280;16452;54.174;12.092;2023-02-13T03:11:01;103474.66;;;9.36;85.88
29505;BME280;16452;54.174;12.092;2023-02-13T03:13:47;103484.22;;;9.30;86.74
29505;BME280;16452;54.174;12.092;2023-02-13T03:16:21;103486.88;;;9.01;87.78
29505;BME280;16452;54.174;12.092;2023-02-13T03:22:59;103480.78;;;9.23;87.60
29505;BME280;16452;54.174;12.092;2023-02-13T03:25:43;103492.00;;;9.34;85.44
29505;BME280;16452;54.174;12.092;2023-02-13T03:28:44;103498.03;;;9.47;84.61
29505;BME280;16452;54.174;12.092;2023-02-13T03:31:52;103490.19;;;9.56;84.86
29505;BME280;16452;54.174;12.092;2023-02-13T03:34:32;103496.38;;;9.31;85.56
29505;BME280;16452;54.174;12.092;2023-02-13T03:37:29;103493.72;;;9.43;85.73
29505;BME280;16452;54.174;12.092;2023-02-13T03:40:48;103485.97;;;9.31;85.14
29505;BME280;16452;54.174;12.092;2023-02-13T03:46:17;103486.72;;;9.56;83.72
29505;BME280;16452;54.174;12.092;2023-02-13T03:48:44;103482.38;;;9.59;83.92
29505;BME280;16452;54.174;12.092;2023-02-13T03:51:52;103474.56;;;9.65;84.16
29505;BME280;16452;54.174;12.092;2023-02-13T03:54:45;103483.31;;;9.40;84.05
29505;BME280;16452;54.174;12.092;2023-02-13T03:57:33;103479.81;;;9.47;85.21
29505;BME280;16452;54.174;12.092;2023-02-13T04:00:20;103484.16;;;9.48;84.46
29505;BME280;16452;54.174;12.092;2023-02-13T04:02:58;103486.78;;;9.42;85.69
29505;BME280;16452;54.174;12.092;2023-02-13T04:05:29;103491.09;;;9.49;84.25
29505;BME280;16452;54.174;12.092;2023-02-13T04:07:56;103489.38;;;9.48;84.14
29505;BME280;16452;54.174;12.092;2023-02-13T04:10:24;103492.75;;;9.70;83.21
29505;BME280;16452;54.174;12.092;2023-02-13T04:13:34;103484.16;;;9.54;82.92
29505;BME280;16452;54.174;12.092;2023-02-13T04:16:15;103487.59;;;9.59;84.09
29505;BME280;16452;54.174;12.092;2023-02-13T04:18:43;103493.66;;;9.60;83.74
29505;BME280;16452;54.174;12.092;2023-02-13T04:21:09;103497.09;;;9.66;82.46
29505;BME280;16452;54.174;12.092;2023-02-13T04:23:35;103492.81;;;9.52;83.38
29505;BME280;16452;54.174;12.092;2023-02-13T04:26:05;103494.56;;;9.46;84.53
29505;BME280;16452;54.174;12.092;2023-02-13T04:28:32;103489.34;;;9.45;83.34
29505;BME280;16452;54.174;12.092;2023-02-13T04:30:58;103487.59;;;9.58;83.50
29505;BME280;16452;54.174;12.092;2023-02-13T04:33:24;103489.38;;;9.40;84.71
29505;BME280;16452;54.174;12.092;2023-02-13T04:35:49;103487.66;;;9.35;84.04
29505;BME280;16452;54.174;12.092;2023-02-13T04:38:15;103479.03;;;9.15;84.98
29505;BME280;16452;54.174;12.092;2023-02-13T04:40:41;103485.94;;;9.32;84.49
29505;BME280;16452;54.174;12.092;2023-02-13T04:43:07;103489.41;;;9.34;83.74
29505;BME280;16452;54.174;12.092;2023-02-13T04:45:33;103494.63;;;9.21;84.37
29505;BME280;16452;54.174;12.092;2023-02-13T04:47:59;103482.44;;;9.42;84.50
29505;BME280;16452;54.174;12.092;2023-02-13T04:50:24;103490.28;;;9.35;84.78
29505;BME280;16452;54.174;12.092;2023-02-13T04:52:56;103490.28;;;9.33;84.95
29505;BME280;16452;54.174;12.092;2023-02-13T04:55:26;103492.84;;;9.39;84.14
29505;BME280;16452;54.174;12.092;2023-02-13T04:57:53;103486.75;;;9.43;83.75
29505;BME280;16452;54.174;12.092;2023-02-13T05:00:21;103498.94;;;9.35;84.74
29505;BME280;16452;54.174;12.092;2023-02-13T05:02:47;103490.25;;;9.32;84.41
29505;BME280;16452;54.174;12.092;2023-02-13T05:05:13;103492.81;;;9.44;84.00
29505;BME280;16452;54.174;12.092;2023-02-13T05:07:40;103491.09;;;9.44;83.67
29505;BME280;16452;54.174;12.092;2023-02-13T05:10:10;103497.19;;;9.33;83.37
29505;BME280;16452;54.174;12.092;2023-02-13T05:12:37;103491.16;;;9.23;83.39
29505;BME280;16452;54.174;12.092;2023-02-13T05:15:04;103498.13;;;9.26;84.39
29505;BME280;16452;54.174;12.092;2023-02-13T05:17:30;103499.75;;;9.43;83.60
29505;BME280;16452;54.174;12.092;2023-02-13T05:19:56;103504.13;;;9.41;83.25
29505;BME280;16452;54.174;12.092;2023-02-13T05:22:23;103503.31;;;9.18;83.56
29505;BME280;16452;54.174;12.092;2023-02-13T05:25:08;103502.44;;;9.30;84.09
29505;BME280;16452;54.174;12.092;2023-02-13T05:27:34;103505.00;;;9.39;83.92
29505;BME280;16452;54.174;12.092;2023-02-13T05:29:59;103507.63;;;9.36;83.84
29505;BME280;16452;54.174;12.092;2023-02-13T05:32:25;103504.19;;;9.17;84.47
29505;BME280;16452;54.174;12.092;2023-02-13T05:34:51;103504.16;;;9.20;84.32
29505;BME280;16452;54.174;12.092;2023-02-13T05:37:16;103506.75;;;9.28;83.60
29505;BME280;16452;54.174;12.092;2023-02-13T05:39:42;103509.41;;;9.19;83.65
29505;BME280;16452;54.174;12.092;2023-02-13T05:42:08;103506.75;;;9.26;83.13
29505;BME280;16452;54.174;12.092;2023-02-13T05:44:35;103499.81;;;9.33;82.49
29505;BME280;16452;54.174;12.092;2023-02-13T05:47:00;103505.94;;;9.14;83.53
29505;BME280;16452;54.174;12.092;2023-02-13T05:49:26;103514.56;;;9.20;83.67
29505;BME280;16452;54.174;12.092;2023-02-13T05:51:52;103507.66;;;9.15;83.29
29505;BME280;16452;54.174;12.092;2023-02-13T05:54:18;103523.25;;;9.22;84.01
29505;BME280;16452;54.174;12.092;2023-02-13T05:56:44;103518.06;;;9.19;83.54
29505;BME280;16452;54.174;12.092;2023-02-13T05:59:10;103515.44;;;9.24;83.82
29505;BME280;16452;54.174;12.092;2023-02-13T06:01:35;103515.44;;;9.37;83.45
29505;BME280;16452;54.174;12.092;2023-02-13T06:04:01;103523.25;;;9.10;84.03
29505;BME280;16452;54.174;12.092;2023-02-13T06:06:27;103518.94;;;9.12;83.94
29505;BME280;16452;54.174;12.092;2023-02-13T06:08:53;103528.41;;;9.42;82.94
29505;BME280;16452;54.174;12.092;2023-02-13T06:11:19;103531.03;;;9.36;83.12
29505;BME280;16452;54.174;12.092;2023-02-13T06:13:45;103529.28;;;9.35;82.95
29505;BME280;16452;54.174;12.092;2023-02-13T06:16:11;103534.50;;;9.21;83.93
29505;BME280;16452;54.174;12.092;2023-02-13T06:18:38;103534.47;;;9.44;82.75
29505;BME280;16452;54.174;12.092;2023-02-13T06:21:05;103524.06;;;9.38;82.78
29505;BME280;16452;54.174;12.092;2023-02-13T06:23:31;103525.84;;;9.21;83.74
29505;BME280;16452;54.174;12.092;2023-02-13T06:26:07;103525.88;;;9.05;84.87
29505;BME280;16452;54.174;12.092;2023-02-13T06:28:34;103538.00;;;9.05;85.20
29505;BME280;16452;54.174;12.092;2023-02-13T06:31:00;103522.38;;;9.26;83.92
29505;BME280;16452;54.174;12.092;2023-02-13T06:33:26;103528.44;;;9.22;84.09
29505;BME280;16452;54.174;12.092;2023-02-13T06:35:52;103530.22;;;9.13;84.22
29505;BME280;16452;54.174;12.092;2023-02-13T06:38:18;103537.13;;;9.11;84.48
29505;BME280;16452;54.174;12.092;2023-02-13T06:40:48;103538.00;;;9.23;83.81
29505;BME280;16452;54.174;12.092;2023-02-13T06:43:14;103531.91;;;9.23;83.92
29505;BME280;16452;54.174;12.092;2023-02-13T06:45:41;103538.84;;;9.24;83.55
29505;BME280;16452;54.174;12.092;2023-02-13T06:48:08;103544.94;;;9.24;83.69
29505;BME280;16452;54.174;12.092;2023-02-13T06:50:34;103544.06;;;9.15;82.96
29505;BME280;16452;54.174;12.092;2023-02-13T06:53:00;103546.66;;;9.24;83.39
29505;BME280;16452;54.174;12.092;2023-02-13T06:55:26;103546.66;;;9.30;83.00
29505;BME280;16452;54.174;12.092;2023-02-13T06:57:52;103547.50;;;9.29;82.61
29505;BME280;16452;54.174;12.092;2023-02-13T07:00:19;103548.41;;;9.13;83.58
29505;BME280;16452;54.174;12.092;2023-02-13T07:02:45;103550.13;;;9.24;83.19
29505;BME280;16452;54.174;12.092;2023-02-13T07:05:12;103546.66;;;9.25;82.51
29505;BME280;16452;54.174;12.092;2023-02-13T07:07:40;103538.84;;;9.15;82.46
29505;BME280;16452;54.174;12.092;2023-02-13T07:10:09;103545.78;;;9.25;82.50
29505;BME280;16452;54.174;12.092;2023-02-13T07:12:36;103542.34;;;9.04;83.37
29505;BME280;16452;54.174;12.092;2023-02-13T07:15:04;103546.66;;;9.04;83.34
29505;BME280;16452;54.174;12.092;2023-02-13T07:17:29;103541.47;;;9.05;83.39
29505;BME280;16452;54.174;12.092;2023-02-13T07:19:56;103544.06;;;9.16;83.22
29505;BME280;16452;54.174;12.092;2023-02-13T07:22:21;103534.53;;;9.24;82.57
29505;BME280;16452;54.174;12.092;2023-02-13T07:24:47;103547.53;;;9.24;82.65
29505;BME280;16452;54.174;12.092;2023-02-13T07:27:13;103553.59;;;9.25;82.10
29505;BME280;16452;54.174;12.092;2023-02-13T07:29:41;103546.59;;;9.45;82.50
29505;BME280;16452;54.174;12.092;2023-02-13T07:32:07;103553.59;;;9.19;83.87
29505;BME280;16452;54.174;12.092;2023-02-13T07:34:33;103557.94;;;9.30;83.22
29505;BME280;16452;54.174;12.092;2023-02-13T07:36:59;103557.09;;;9.01;84.13
29505;BME280;16452;54.174;12.092;2023-02-13T07:39:25;103558.81;;;9.13;83.46
29505;BME280;16452;54.174;12.092;2023-02-13T07:41:50;103557.06;;;9.10;83.55
29505;BME280;16452;54.174;12.092;2023-02-13T07:44:16;103561.38;;;9.26;83.71
29505;BME280;16452;54.174;12.092;2023-02-13T07:46:42;103561.41;;;9.25;83.34
29505;BME280;16452;54.174;12.092;2023-02-13T07:49:08;103557.06;;;9.37;83.23
29505;BME280;16452;54.174;12.092;2023-02-13T07:51:34;103559.66;;;9.25;82.75
29505;BME280;16452;54.174;12.092;2023-02-13T07:54:01;103563.97;;;9.38;82.73
29505;BME280;16452;54.174;12.092;2023-02-13T07:56:27;103560.50;;;9.33;83.20
29505;BME280;16452;54.174;12.092;2023-02-13T07:58:53;103563.09;;;9.32;82.81
29505;BME280;16452;54.174;12.092;2023-02-13T08:01:19;103563.97;;;9.43;81.52
29505;BME280;16452;54.174;12.092;2023-02-13T08:03:48;103569.19;;;9.43;82.14
29505;BME280;16452;54.174;12.092;2023-02-13T08:06:16;103561.34;;;9.51;81.37
29505;BME280;16452;54.174;12.092;2023-02-13T08:08:42;103555.28;;;9.45;81.72
29505;BME280;16452;54.174;12.092;2023-02-13T08:11:30;103559.59;;;9.56;81.58
29505;BME280;16452;54.174;12.092;2023-02-13T08:14:15;103566.53;;;9.54;81.53
29505;BME280;16452;54.174;12.092;2023-02-13T08:16:41;103564.81;;;9.43;81.88
29505;BME280;16452;54.174;12.092;2023-02-13T08:19:07;103566.56;;;9.43;82.01
29505;BME280;16452;54.174;12.092;2023-02-13T08:21:33;103565.69;;;9.47;81.26
29505;BME280;16452;54.174;12.092;2023-02-13T08:23:59;103553.59;;;9.16;82.33
29505;BME280;16452;54.174;12.092;2023-02-13T08:26:25;103563.13;;;9.24;82.97
29505;BME280;16452;54.174;12.092;2023-02-13T08:28:51;103562.28;;;9.25;82.24
29505;BME280;16452;54.174;12.092;2023-02-13T08:31:17;103566.56;;;9.38;81.85
29505;BME280;16452;54.174;12.092;2023-02-13T08:33:43;103569.19;;;9.26;82.17
29505;BME280;16452;54.174;12.092;2023-02-13T08:36:09;103568.31;;;9.35;81.96
29505;BME280;16452;54.174;12.092;2023-02-13T08:38:34;103570.94;;;9.26;82.28
29505;BME280;16452;54.174;12.092;2023-02-13T08:41:00;103570.91;;;9.35;82.39
29505;BME280;16452;54.174;12.092;2023-02-13T08:43:26;103571.75;;;9.47;81.76
29505;BME280;16452;54.174;12.092;2023-02-13T08:45:52;103570.03;;;9.40;82.17
29505;BME280;16452;54.174;12.092;2023-02-13T08:48:18;103570.06;;;9.31;82.25
29505;BME280;16452;54.174;12.092;2023-02-13T08:50:43;103577.84;;;9.39;83.23
29505;BME280;16452;54.174;12.092;2023-02-13T08:53:09;103570.91;;;9.36;82.38
29505;BME280;16452;54.174;12.092;2023-02-13T08:55:35;103570.06;;;9.18;83.32
29505;BME280;16452;54.174;12.092;2023-02-13T08:58:02;103571.75;;;9.44;82.44
29505;BME280;16452;54.174;12.092;2023-02-13T09:00:29;103573.50;;;9.45;82.62
29505;BME280;16452;54.174;12.092;2023-02-13T09:03:02;103573.53;;;9.35;83.12
29505;BME280;16452;54.174;12.092;2023-02-13T09:05:29;103569.16;;;9.46;82.48
29505;BME280;16452;54.174;12.092;2023-02-13T09:07:59;103561.38;;;9.40;82.62
29505;BME280;16452;54.174;12.092;2023-02-13T09:10:27;103570.06;;;9.25;83.24
29505;BME280;16452;54.174;12.092;2023-02-13T09:12:53;103574.38;;;9.28;83.13
29505;BME280;16452;54.174;12.092;2023-02-13T09:15:19;103570.06;;;9.25;83.34
29505;BME280;16452;54.174;12.092;2023-02-13T09:17:45;103571.78;;;9.29;83.99
29505;BME280;16452;54.174;12.092;2023-02-13T09:20:11;103571.81;;;9.14;83.63
29505;BME280;16452;54.174;12.092;2023-02-13T09:22:41;103573.53;;;9.18;84.07
29505;BME280;16452;54.174;12.092;2023-02-13T09:25:08;103581.28;;;9.58;83.40
29505;BME280;16452;54.174;12.092;2023-02-13T09:27:34;103570.91;;;9.41;83.41
29505;BME280;16452;54.174;12.092;2023-02-13T09:30:01;103577.00;;;9.31;83.82
29505;BME280;16452;54.174;12.092;2023-02-13T09:32:30;103578.72;;;9.42;83.40
29505;BME280;16452;54.174;12.092;2023-02-13T09:34:55;103580.47;;;9.31;84.34
29505;BME280;16452;54.174;12.092;2023-02-13T09:37:21;103589.97;;;9.40;84.64
29505;BME280;16452;54.174;12.092;2023-02-13T09:39:47;103584.78;;;9.34;84.80
29505;BME280;16452;54.174;12.092;2023-02-13T09:42:36;103579.50;;;9.69;83.82
29505;BME280;16452;54.174;12.092;2023-02-13T09:45:04;103586.50;;;9.48;83.67
29505;BME280;16452;54.174;12.092;2023-02-13T09:47:42;103584.78;;;9.43;83.76
29505;BME280;16452;54.174;12.092;2023-02-13T09:50:21;103587.34;;;9.57;83.04
29505;BME280;16452;54.174;12.092;2023-02-13T09:52:50;103582.13;;;9.55;83.84
29505;BME280;16452;54.174;12.092;2023-02-13T10:00:40;103580.34;;;9.74;82.95
29505;BME280;16452;54.174;12.092;2023-02-13T10:03:36;103582.97;;;9.74;83.25
29505;BME280;16452;54.174;12.092;2023-02-13T10:06:21;103585.59;;;9.66;82.74
29505;BME280;16452;54.174;12.092;2023-02-13T10:09:12;103583.91;;;9.42;83.88
29505;BME280;16452;54.174;12.092;2023-02-13T10:17:38;103578.72;;;9.42;83.93
29505;BME280;16452;54.174;12.092;2023-02-13T10:20:23;103585.66;;;9.48;83.72
29505;BME280;16452;54.174;12.092;2023-02-13T10:22:58;103587.34;;;9.55;84.00
29505;BME280;16452;54.174;12.092;2023-02-13T10:25:52;103587.31;;;9.63;83.59
29505;BME280;16452;54.174;12.092;2023-02-13T10:28:41;103581.31;;;9.39;83.77
29505;BME280;16452;54.174;12.092;2023-02-13T10:31:14;103586.50;;;9.44;84.12
29505;BME280;16452;54.174;12.092;2023-02-13T10:34:01;103587.34;;;9.64;83.21
29505;BME280;16452;54.174;12.092;2023-02-13T10:36:33;103596.03;;;9.54;83.58
29505;BME280;16452;54.174;12.092;2023-02-13T10:41:53;103589.84;;;9.90;82.21
29505;BME280;16452;54.174;12.092;2023-02-13T10:47:21;103583.88;;;9.52;83.23
29505;BME280;16452;54.174;12.092;2023-02-13T10:50:15;103581.22;;;9.74;82.57
29505;BME280;16452;54.174;12.092;2023-02-13T10:53:04;103581.19;;;9.79;82.59
29505;BME280;16452;54.174;12.092;2023-02-13T10:56:10;103582.88;;;9.92;81.38
29505;BME280;16452;54.174;12.092;2023-02-13T11:04:28;103602.88;;;9.87;81.61
29505;BME280;16452;54.174;12.092;2023-02-13T11:07:00;103602.88;;;9.85;81.71
29505;BME280;16452;54.174;12.092;2023-02-13T11:09:28;103601.19;;;9.74;82.08
29505;BME280;16452;54.174;12.092;2023-02-13T11:11:57;103599.47;;;9.65;82.80
29505;BME280;16452;54.174;12.092;2023-02-13T11:14:25;103599.50;;;9.59;83.14
29505;BME280;16452;54.174;12.092;2023-02-13T11:17:11;103606.38;;;9.77;83.11
29505;BME280;16452;54.174;12.092;2023-02-13T11:19:54;103606.44;;;9.60;83.62
29505;BME280;16452;54.174;12.092;2023-02-13T11:22:39;103594.22;;;9.80;84.35
29505;BME280;16452;54.174;12.092;2023-02-13T11:25:24;103586.44;;;9.74;83.53
29505;BME280;16452;54.174;12.092;2023-02-13T11:28:09;103590.78;;;9.77;83.82
29505;BME280;16452;54.174;12.092;2023-02-13T11:30:37;103598.59;;;9.69;84.09
29505;BME280;16452;54.174;12.092;2023-02-13T11:33:26;103599.44;;;9.76;83.27
29505;BME280;16452;54.174;12.092;2023-02-13T11:38:31;103596.91;;;9.61;83.51
29505;BME280;16452;54.174;12.092;2023-02-13T11:41:14;103591.66;;;9.71;84.59
29505;BME280;16452;54.174;12.092;2023-02-13T11:43:53;103592.56;;;9.58;83.60
29505;BME280;16452;54.174;12.092;2023-02-13T11:46:42;103589.03;;;9.73;82.96
29505;BME280;16452;54.174;12.092;2023-02-13T11:49:22;103594.22;;;9.74;83.54
29505;BME280;16452;54.174;12.092;2023-02-13T11:51:58;103592.47;;;9.81;82.48
29505;BME280;16452;54.174;12.092;2023-02-13T11:54:37;103594.25;;;9.76;82.92
29505;BME280;16452;54.174;12.092;2023-02-13T11:59:58;103592.47;;;9.81;83.18
29505;BME280;16452;54.174;12.092;2023-02-13T12:02:44;103596.84;;;9.73;82.71
29505;BME280;16452;54.174;12.092;2023-02-13T12:05:25;103604.63;;;9.86;81.83
29505;BME280;16452;54.174;12.092;2023-02-13T12:07:51;103596.84;;;9.77;81.91
29505;BME280;16452;54.174;12.092;2023-02-13T12:10:23;103596.84;;;9.68;81.76
29505;BME280;16452;54.174;12.092;2023-02-13T12:15:32;103604.66;;;9.77;82.51
29505;BME280;16452;54.174;12.092;2023-02-13T12:27:26;103611.59;;;9.74;81.76
29505;BME280;16452;54.174;12.092;2023-02-13T12:30:01;103615.97;;;9.64;82.12
29505;BME280;16452;54.174;12.092;2023-02-13T12:35:49;103604.59;;;9.94;83.29
29505;BME280;16452;54.174;12.092;2023-02-13T12:44:34;103591.50;;;10.17;81.31
29505;BME280;16452;54.174;12.092;2023-02-13T12:47:25;103590.47;;;10.44;80.91
29505;BME280;16452;54.174;12.092;2023-02-13T12:55:21;103592.44;;;9.95;80.45
29505;BME280;16452;54.174;12.092;2023-02-13T13:07:59;103585.50;;;9.95;81.01
29505;BME280;16452;54.174;12.092;2023-02-13T13:13:25;103578.56;;;9.88;82.26
29505;BME280;16452;54.174;12.092;2023-02-13T13:19:33;103583.75;;;9.97;81.05
29505;BME280;16452;54.174;12.092;2023-02-13T13:22:06;103574.19;;;9.99;80.43
29505;BME280;16452;54.174;12.092;2023-02-13T13:27:54;103564.63;;;10.03;79.82
29505;BME280;16452;54.174;12.092;2023-02-13T13:30:28;103565.50;;;9.99;80.06
29505;BME280;16452;54.174;12.092;2023-02-13T13:33:04;103580.25;;;10.04;79.20
29505;BME280;16452;54.174;12.092;2023-02-13T13:35:33;103574.09;;;10.23;77.60
29505;BME280;16452;54.174;12.092;2023-02-13T13:38:16;103556.75;;;10.24;77.06
29505;BME280;16452;54.174;12.092;2023-02-13T13:41:01;103563.72;;;10.08;77.58
29505;BME280;16452;54.174;12.092;2023-02-13T13:44:08;103568.06;;;10.09;77.19
29505;BME280;16452;54.174;12.092;2023-02-13T13:49:33;103547.34;;;9.89;77.74
29505;BME280;16452;54.174;12.092;2023-02-13T13:52:30;103540.28;;;10.08;77.86
29505;BME280;16452;54.174;12.092;2023-02-13T13:54:59;103547.25;;;10.02;76.88
29505;BME280;16452;54.174;12.092;2023-02-13T14:00:30;103530.75;;;10.04;76.56
29505;BME280;16452;54.174;12.092;2023-02-13T14:03:21;103517.63;;;10.27;75.19
29505;BME280;16452;54.174;12.092;2023-02-13T14:06:06;103531.56;;;10.15;75.94
29505;BME280;16452;54.174;12.092;2023-02-13T14:09:00;103528.94;;;10.14;75.76
29505;BME280;16452;54.174;12.092;2023-02-13T14:11:38;103515.94;;;10.15;76.22
29505;BME280;16452;54.174;12.092;2023-02-13T14:16:53;103514.38;;;9.82;77.01
29505;BME280;16452;54.174;12.092;2023-02-13T14:19:36;103520.38;;;10.01;76.20
29505;BME280;16452;54.174;12.092;2023-02-13T14:24:50;103515.97;;;10.11;75.55
29505;BME280;16452;54.174;12.092;2023-02-13T14:27:31;103531.66;;;9.97;75.24
29505;BME280;16452;54.174;12.092;2023-02-13T14:29:59;103529.06;;;9.97;74.82
29505;BME280;16452;54.174;12.092;2023-02-13T14:32:32;103521.22;;;10.02;75.80
29505;BME280;16452;54.174;12.092;2023-02-13T14:35:24;103510.97;;;9.68;76.99
29505;BME280;16452;54.174;12.092;2023-02-13T14:37:55;103517.00;;;9.76;76.30
29505;BME280;16452;54.174;12.092;2023-02-13T14:43:31;103517.00;;;9.78;75.75
29505;BME280;16452;54.174;12.092;2023-02-13T14:46:32;103516.13;;;9.82;75.40
29505;BME280;16452;54.174;12.092;2023-02-13T14:49:18;103514.38;;;9.81;76.47
29505;BME280;16452;54.174;12.092;2023-02-13T14:51:55;103526.47;;;9.96;75.86
29505;BME280;16452;54.174;12.092;2023-02-13T14:54:37;103520.44;;;9.86;77.40
29505;BME280;16452;54.174;12.092;2023-02-13T14:57:21;103510.94;;;9.77;77.97
29505;BME280;16452;54.174;12.092;2023-02-13T14:59:59;103511.91;;;9.52;78.76
29505;BME280;16452;54.174;12.092;2023-02-13T15:02:36;103516.22;;;9.59;79.18
29505;BME280;16452;54.174;12.092;2023-02-13T15:05:12;103525.72;;;9.62;78.43
29505;BME280;16452;54.174;12.092;2023-02-13T15:07:51;103519.69;;;9.57;78.41
29505;BME280;16452;54.174;12.092;2023-02-13T15:10:42;103525.72;;;9.62;78.13